SBMN/MAO METAR and TAF weather

Enter ICAO airport designator
Station Type Date Time Source
SBMN METAR 2019/12/07 15:00 UTC NOAA

SBMN 071500Z 25008KT 9999 BKN010 BKN016 28/24 Q1013


Station Type Date Time Source
SBMN Decoded METAR 2019/12/07 15:00 UTC NOAA

Manaus Aeroporto , Brazil (SBMN) 03-09S 059-59W 84M
Dec 07, 2019 - 10:00 AM EST / 2019.12.07 1500 UTC
Wind: from the WSW (250 degrees) at 9 MPH (8 KT):0
Visibility: greater than 7 mile(s):0
Sky conditions: mostly cloudy
Temperature: 82 F (28 C)
Dew Point: 75 F (24 C)
Relative Humidity: 78%
Pressure (altimeter): 29.91 in. Hg (1013 hPa)
ob: SBMN 071500Z 25008KT 9999 BKN010 BKN016 28/24 Q1013
cycle: 15

Station Type Date Time Source
SBMN TAF 2019/12/07 12:58 UTC NOAA

TAF SBMN 071000Z 0712/0724 07005KT 8000 SCT014 TN28/0712Z TX31/0715Z PROB40 0717/0723 06007KT 8000 TSRA FEW010 FEW025CB
BECMG 0719/0721 06008KT 9999 FEW015
RMK PAY

Example: see airport list